Urb Celina, Puerto Rico
Current Conditions -  °F | °C
As of 11:53 PM on Tuesday 27 Jan 2015 (Local Time) from TJNR Reporting Station
Clear Clear  
Wind Chill: 73°   Ceiling: Unl
Heat Index: 73°   Visibility: 10mi
Dew Point: 70°   Wind: 3mph
Humidity: 90%   Direction: 250°WSW
Pressure: 30.04"   Gusts: NA
Location:  18.2667°N, 65.6476°W
Report Text: TJNR 280353Z AUTO 25003KT 10SM CLR 23/21 A3004 RMK AO2 SLP174 T02280211 402940222 $
Loading
Personal Weather Stations






























Interactive Weather Map New forecast layout! Learn more

10-Day Weather Forecast

Advertisements
Track Severe Weather on mobile